createdAt,value
2022-09-25T00:00:24.119Z,12.80
2022-09-25T00:03:13.700Z,13.00
2022-09-25T00:06:03.521Z,12.60
2022-09-25T00:08:52.929Z,12.60
2022-09-25T00:11:42.067Z,14.48
2022-09-25T00:14:31.556Z,14.70
2022-09-25T00:17:21.983Z,15.73
2022-09-25T00:20:11.375Z,16.05
2022-09-25T00:23:02.663Z,15.82
2022-09-25T00:25:56.490Z,17.05
2022-09-25T00:28:45.618Z,18.58
2022-09-25T00:31:35.174Z,17.83
2022-09-25T00:34:25.767Z,18.05
2022-09-25T00:37:15.013Z,18.40
2022-09-25T00:40:04.135Z,17.45
2022-09-25T00:42:53.197Z,17.17
2022-09-25T00:45:42.344Z,17.17
2022-09-25T00:48:32.409Z,17.40
2022-09-25T00:51:29.854Z,20.40
2022-09-25T00:54:27.353Z,16.45
2022-09-25T00:57:19.704Z,20.23
2022-09-25T01:00:13.220Z,17.60
2022-09-25T01:03:03.435Z,18.77
2022-09-25T01:05:52.998Z,17.42
2022-09-25T01:08:44.362Z,19.25
2022-09-25T01:11:33.529Z,17.25
2022-09-25T01:14:22.809Z,18.73
2022-09-25T01:17:19.163Z,18.60
2022-09-25T01:20:22.485Z,16.63
2022-09-25T01:23:22.259Z,18.90
2022-09-25T01:26:31.599Z,18.80
2022-09-25T01:29:28.520Z,18.42
2022-09-25T01:32:22.318Z,18.58
2022-09-25T01:35:19.637Z,17.90
2022-09-25T01:38:16.515Z,17.67
2022-09-25T01:41:13.189Z,17.92
2022-09-25T01:44:07.944Z,19.05
2022-09-25T01:47:09.414Z,19.67
2022-09-25T01:50:01.944Z,20.00
2022-09-25T01:52:54.534Z,17.50
2022-09-25T01:55:47.780Z,19.13
2022-09-25T01:58:42.365Z,18.08
2022-09-25T02:01:35.682Z,17.23
2022-09-25T02:04:30.474Z,20.08
2022-09-25T02:07:25.405Z,19.30
2022-09-25T02:10:19.219Z,17.08
2022-09-25T02:13:13.313Z,18.85
2022-09-25T02:16:06.446Z,18.50
2022-09-25T02:19:12.927Z,20.33
2022-09-25T02:22:09.617Z,17.67
2022-09-25T02:25:04.714Z,20.08
2022-09-25T02:27:53.819Z,18.98
2022-09-25T02:30:43.461Z,18.02
2022-09-25T02:33:32.764Z,17.00
2022-09-25T02:36:24.118Z,17.50
2022-09-25T02:39:17.430Z,16.67
2022-09-25T02:42:21.484Z,18.15
2022-09-25T02:45:25.430Z,16.77
2022-09-25T02:48:22.022Z,17.65
2022-09-25T02:51:17.904Z,17.40
2022-09-25T02:54:13.090Z,16.55
2022-09-25T02:57:09.434Z,15.60
2022-09-25T03:00:02.894Z,15.90
2022-09-25T03:02:56.577Z,16.23
2022-09-25T03:05:46.285Z,15.98
2022-09-25T03:08:42.017Z,17.05
2022-09-25T03:11:31.352Z,16.67
2022-09-25T03:14:22.005Z,16.98
2022-09-25T03:17:12.577Z,16.23
2022-09-25T03:20:02.634Z,14.57
2022-09-25T03:22:51.778Z,16.08
2022-09-25T03:25:42.772Z,15.77
2022-09-25T03:28:35.354Z,15.40
2022-09-25T03:31:26.131Z,15.45
2022-09-25T03:34:17.726Z,16.35
2022-09-25T03:37:06.751Z,16.33
2022-09-25T03:39:55.766Z,16.95
2022-09-25T03:42:44.532Z,17.13
2022-09-25T03:45:33.949Z,16.88
2022-09-25T03:48:24.465Z,16.02
2022-09-25T03:51:14.158Z,16.92
2022-09-25T03:54:04.423Z,16.80
2022-09-25T03:56:53.715Z,16.90
2022-09-25T03:59:42.556Z,17.83
2022-09-25T04:02:31.637Z,16.80
2022-09-25T04:05:21.891Z,16.90
2022-09-25T04:08:11.429Z,16.88
2022-09-25T04:11:00.958Z,17.70
2022-09-25T04:13:50.092Z,17.40
2022-09-25T04:16:39.765Z,17.52
2022-09-25T04:19:28.770Z,16.40
2022-09-25T04:22:19.456Z,17.52
2022-09-25T04:25:09.913Z,16.38
2022-09-25T04:27:59.205Z,16.23
2022-09-25T04:30:48.731Z,15.57
2022-09-25T04:33:48.799Z,16.85
2022-09-25T04:36:37.857Z,16.73
2022-09-25T04:39:28.731Z,16.58
2022-09-25T04:42:17.492Z,16.42
2022-09-25T04:45:07.331Z,17.65
2022-09-25T04:47:56.244Z,16.55
2022-09-25T04:50:51.714Z,15.52
2022-09-25T04:53:40.893Z,14.90
2022-09-25T04:56:31.362Z,15.88
2022-09-25T04:59:20.460Z,17.25
2022-09-25T05:02:09.411Z,15.32
2022-09-25T05:04:58.658Z,16.30
2022-09-25T05:07:54.177Z,15.15
2022-09-25T05:10:46.172Z,15.10
2022-09-25T05:13:36.526Z,14.75
2022-09-25T05:16:25.933Z,14.90
2022-09-25T05:19:15.201Z,15.30
2022-09-25T05:22:04.210Z,15.23
2022-09-25T05:24:58.821Z,14.85
2022-09-25T05:27:48.978Z,16.73
2022-09-25T05:30:40.035Z,16.08
2022-09-25T05:33:29.151Z,16.10
2022-09-25T05:36:18.947Z,16.42
2022-09-25T05:39:10.961Z,16.65
2022-09-25T05:42:04.059Z,17.20
2022-09-25T05:44:53.004Z,16.38
2022-09-25T05:47:43.590Z,17.02
2022-09-25T05:50:33.683Z,15.95
2022-09-25T05:53:23.522Z,16.15
2022-09-25T05:56:13.662Z,17.20
2022-09-25T05:59:02.571Z,16.80
2022-09-25T06:01:52.547Z,16.45
2022-09-25T06:04:43.145Z,17.17
2022-09-25T06:07:32.469Z,16.35
2022-09-25T06:10:21.982Z,17.30
2022-09-25T06:13:11.036Z,18.02
2022-09-25T06:16:00.565Z,17.88
2022-09-25T06:18:51.132Z,17.25
2022-09-25T06:21:42.502Z,17.23
2022-09-25T06:24:31.236Z,18.33
2022-09-25T06:27:20.377Z,16.52
2022-09-25T06:30:09.939Z,17.85
2022-09-25T06:33:00.162Z,17.73
2022-09-25T06:35:50.282Z,18.25
2022-09-25T06:38:40.503Z,15.93
2022-09-25T06:41:29.838Z,18.08
2022-09-25T06:44:19.045Z,16.48
2022-09-25T06:47:08.211Z,16.90
2022-09-25T06:49:58.227Z,16.58
2022-09-25T06:52:46.670Z,18.08
2022-09-25T06:55:37.757Z,16.60
2022-09-25T06:58:27.424Z,16.38
2022-09-25T07:01:16.772Z,16.05
2022-09-25T07:04:05.218Z,16.67
2022-09-25T07:06:58.795Z,17.85
2022-09-25T07:09:48.573Z,17.23
2022-09-25T07:12:41.682Z,16.30
2022-09-25T07:15:31.328Z,16.08
2022-09-25T07:18:20.265Z,14.82
2022-09-25T07:21:10.721Z,16.13
2022-09-25T07:24:00.092Z,16.67
2022-09-25T07:26:49.123Z,15.82
2022-09-25T07:29:40.699Z,15.95
2022-09-25T07:32:29.880Z,16.55
2022-09-25T07:35:19.026Z,16.52
2022-09-25T07:38:07.891Z,16.15
2022-09-25T07:40:57.720Z,17.67
2022-09-25T07:43:47.228Z,16.52
2022-09-25T07:46:43.040Z,17.25
2022-09-25T07:49:32.454Z,15.38
2022-09-25T07:52:22.140Z,17.42
2022-09-25T07:55:11.430Z,16.55
2022-09-25T07:58:00.701Z,18.52
2022-09-25T08:00:49.432Z,16.27
2022-09-25T08:03:40.529Z,19.13
2022-09-25T08:06:30.110Z,17.35
2022-09-25T08:09:19.318Z,17.48
2022-09-25T08:12:13.209Z,16.13
2022-09-25T08:15:01.999Z,17.48
2022-09-25T08:17:51.541Z,16.75
2022-09-25T08:20:42.379Z,17.00
2022-09-25T08:23:31.475Z,17.45
2022-09-25T08:26:22.246Z,16.58
2022-09-25T08:29:11.561Z,15.93
2022-09-25T08:32:01.042Z,16.58
2022-09-25T08:34:50.460Z,15.05
2022-09-25T08:37:43.350Z,15.55
2022-09-25T08:40:34.358Z,14.50
2022-09-25T08:43:26.464Z,16.02
2022-09-25T08:46:39.790Z,13.68
2022-09-25T08:49:34.596Z,15.52
2022-09-25T08:52:23.866Z,14.65
2022-09-25T08:55:18.661Z,15.07
2022-09-25T08:58:10.863Z,15.18
2022-09-25T09:01:02.081Z,14.35
2022-09-25T09:03:57.849Z,15.10
2022-09-25T09:07:08.099Z,14.23
2022-09-25T09:10:03.909Z,15.45
2022-09-25T09:12:59.257Z,17.05
2022-09-25T09:15:51.389Z,15.32
2022-09-25T09:18:42.500Z,15.63
2022-09-25T09:21:36.335Z,13.93
2022-09-25T09:24:31.655Z,13.43
2022-09-25T09:27:30.478Z,14.55
2022-09-25T09:30:24.237Z,15.32
2022-09-25T09:33:27.387Z,15.05
2022-09-25T09:36:24.266Z,13.50
2022-09-25T09:39:29.342Z,13.98
2022-09-25T09:42:26.099Z,15.88
2022-09-25T09:45:22.537Z,15.95
2022-09-25T09:48:17.555Z,15.65
2022-09-25T09:51:12.414Z,15.52
2022-09-25T09:54:05.488Z,16.60
2022-09-25T09:56:56.334Z,15.45
2022-09-25T09:59:50.722Z,13.50
2022-09-25T10:02:45.135Z,13.70
2022-09-25T10:05:39.507Z,13.10
2022-09-25T10:08:28.844Z,15.40
2022-09-25T10:11:19.767Z,13.32
2022-09-25T10:14:16.723Z,13.98
2022-09-25T10:17:06.603Z,12.93
2022-09-25T10:19:59.878Z,15.10
2022-09-25T10:22:50.769Z,14.00
2022-09-25T10:25:41.393Z,16.08
2022-09-25T10:28:32.723Z,14.27
2022-09-25T10:31:22.652Z,15.57
2022-09-25T10:34:22.594Z,16.70
2022-09-25T10:37:22.390Z,18.55
2022-09-25T10:40:27.723Z,16.90
2022-09-25T10:43:20.743Z,14.48
2022-09-25T10:46:14.556Z,14.02
2022-09-25T10:49:33.016Z,14.00
2022-09-25T10:52:24.282Z,12.60
2022-09-25T10:55:22.338Z,14.52
2022-09-25T10:58:21.448Z,13.07
2022-09-25T11:01:13.716Z,13.73
2022-09-25T11:04:06.145Z,13.77
2022-09-25T11:06:58.190Z,13.55
2022-09-25T11:09:49.201Z,14.02
2022-09-25T11:12:39.016Z,13.95
2022-09-25T11:15:29.890Z,14.43
2022-09-25T11:18:38.130Z,12.10
2022-09-25T11:21:34.838Z,12.35
2022-09-25T11:24:29.782Z,12.55
2022-09-25T11:27:25.986Z,12.45
2022-09-25T11:30:19.060Z,13.02
2022-09-25T11:33:18.345Z,11.93
2022-09-25T11:36:11.342Z,13.35
2022-09-25T11:39:22.115Z,13.38
2022-09-25T11:42:19.231Z,13.02
2022-09-25T11:45:18.244Z,12.82
2022-09-25T11:48:14.587Z,13.30
2022-09-25T11:51:13.090Z,12.52
2022-09-25T11:54:32.745Z,11.23
2022-09-25T11:57:34.238Z,10.88
2022-09-25T12:00:31.745Z,12.23
2022-09-25T12:03:35.754Z,12.18
2022-09-25T12:06:49.367Z,11.32
2022-09-25T12:09:51.307Z,11.88
2022-09-25T12:12:47.965Z,12.43
2022-09-25T12:15:55.585Z,13.55
2022-09-25T12:19:12.643Z,12.25
2022-09-25T12:22:09.320Z,11.35
2022-09-25T12:25:05.043Z,11.80
2022-09-25T12:28:01.500Z,12.40
2022-09-25T12:31:05.568Z,11.80
2022-09-25T12:34:07.827Z,12.05
2022-09-25T12:37:05.513Z,12.30
2022-09-25T12:39:58.841Z,11.00
2022-09-25T12:42:55.612Z,11.07
2022-09-25T12:45:50.236Z,12.18
2022-09-25T12:48:46.446Z,12.02
2022-09-25T12:51:41.443Z,11.63
2022-09-25T14:00:53.838Z,7.10
2022-09-25T14:03:46.764Z,8.60
2022-09-25T14:06:39.242Z,8.25
2022-09-25T14:09:32.073Z,7.88
2022-09-25T14:12:42.962Z,8.65
2022-09-25T14:15:35.595Z,9.10
2022-09-25T14:18:33.191Z,8.02
2022-09-25T14:21:23.926Z,8.30
2022-09-25T14:24:20.459Z,9.55
2022-09-25T14:27:23.800Z,9.10
2022-09-25T14:30:16.099Z,8.30
2022-09-25T14:33:24.249Z,9.13
2022-09-25T14:36:23.378Z,8.55
2022-09-25T14:39:34.512Z,9.20
2022-09-25T14:42:54.391Z,8.43
2022-09-25T14:46:07.576Z,9.52
2022-09-25T14:49:03.397Z,8.88
2022-09-25T14:51:54.843Z,7.53
2022-09-25T14:54:47.924Z,7.35
2022-09-25T14:57:39.896Z,7.32
2022-09-25T15:00:29.270Z,8.10
2022-09-25T15:03:20.947Z,7.07
2022-09-25T15:06:13.950Z,7.13
2022-09-25T15:09:28.460Z,6.78
2022-09-25T15:12:25.049Z,6.03
2022-09-25T15:15:16.998Z,6.50
2022-09-25T15:18:08.618Z,6.00
2022-09-25T15:20:57.499Z,5.50
2022-09-25T15:23:47.160Z,5.75
2022-09-25T15:26:42.953Z,5.35
2022-09-25T15:29:37.309Z,6.45
2022-09-25T15:32:28.757Z,5.63
2022-09-25T15:35:20.276Z,5.18
2022-09-25T15:38:13.685Z,4.38
2022-09-25T15:41:03.530Z,3.90
2022-09-25T15:43:53.780Z,4.45
2022-09-25T15:46:46.660Z,3.80
2022-09-25T15:49:40.543Z,4.20
2022-09-25T15:52:34.453Z,4.55
2022-09-25T15:55:24.457Z,4.30
2022-09-25T15:58:16.914Z,4.82
2022-09-25T16:01:23.532Z,4.57
2022-09-25T16:04:38.845Z,5.78
2022-09-25T16:07:30.827Z,4.47
2022-09-25T16:10:37.626Z,5.13
2022-09-25T16:13:27.282Z,5.70
2022-09-25T16:16:29.589Z,4.50
2022-09-25T16:19:33.724Z,4.28
2022-09-25T16:22:25.205Z,4.47
2022-09-25T16:25:21.424Z,4.55
2022-09-25T16:28:16.206Z,4.00
2022-09-25T16:31:08.175Z,4.93
2022-09-25T16:34:00.814Z,4.50
2022-09-25T16:36:51.844Z,4.63
2022-09-25T16:39:41.599Z,5.28
2022-09-25T16:42:40.379Z,4.78
2022-09-25T16:45:33.605Z,5.93
2022-09-25T16:48:37.215Z,5.68
2022-09-25T16:51:28.914Z,5.28
2022-09-25T16:54:21.759Z,5.10
2022-09-25T16:57:17.507Z,4.22
2022-09-25T17:00:08.117Z,4.65
2022-09-25T17:02:57.472Z,4.55
2022-09-25T17:05:46.462Z,4.47
2022-09-25T17:08:35.812Z,5.00
2022-09-25T17:11:26.535Z,4.78
2022-09-25T17:14:24.323Z,5.18
2022-09-25T17:17:16.720Z,4.53
2022-09-25T17:20:06.542Z,4.63
2022-09-25T17:22:56.632Z,5.70
2022-09-25T17:25:49.091Z,4.70
2022-09-25T17:28:39.522Z,5.80
2022-09-25T17:31:29.126Z,7.28
2022-09-25T17:34:19.457Z,7.40
2022-09-25T17:37:08.499Z,6.32
2022-09-25T17:39:57.657Z,7.10
2022-09-25T17:42:46.910Z,6.82
2022-09-25T17:45:43.444Z,7.43
2022-09-25T17:48:35.158Z,7.07
2022-09-25T17:51:27.985Z,6.63
2022-09-25T17:54:22.498Z,6.85
2022-09-25T17:57:12.628Z,8.23
2022-09-25T18:00:01.763Z,8.05
2022-09-25T18:02:54.551Z,6.97
2022-09-25T18:05:44.777Z,9.00
2022-09-25T18:08:33.951Z,8.00
2022-09-25T18:11:23.422Z,8.63
2022-09-25T18:14:13.732Z,7.85
2022-09-25T18:17:02.479Z,7.53
2022-09-25T18:20:10.842Z,8.25
2022-09-25T18:22:59.727Z,8.77
2022-09-25T18:25:49.502Z,8.45
2022-09-25T18:28:41.510Z,7.30
2022-09-25T18:31:32.639Z,7.63
2022-09-25T18:34:28.564Z,8.57
2022-09-25T18:37:21.467Z,7.50
2022-09-25T18:40:15.083Z,8.13
2022-09-25T18:43:04.422Z,8.57
2022-09-25T18:45:53.491Z,7.47
2022-09-25T18:48:50.874Z,6.85
2022-09-25T18:51:41.253Z,8.15
2022-09-25T18:54:32.599Z,8.25
2022-09-25T18:57:22.780Z,8.57
2022-09-25T19:00:19.029Z,7.57
2022-09-25T19:03:17.778Z,9.10
2022-09-25T19:06:07.355Z,8.27
2022-09-25T19:08:58.412Z,10.07
2022-09-25T19:11:56.069Z,8.57
2022-09-25T19:14:48.790Z,7.88
2022-09-25T19:17:40.360Z,9.18
2022-09-25T19:20:29.216Z,9.50
2022-09-25T19:23:21.027Z,8.65
2022-09-25T19:26:12.469Z,9.30
2022-09-25T19:29:03.680Z,8.35
2022-09-25T19:31:58.817Z,8.38
2022-09-25T19:34:49.311Z,8.95
2022-09-25T19:37:42.339Z,9.43
2022-09-25T19:40:41.981Z,9.27
2022-09-25T19:43:35.628Z,9.07
2022-09-25T19:46:32.294Z,9.23
2022-09-25T19:49:23.421Z,8.50
2022-09-25T19:52:20.560Z,8.52
2022-09-25T19:55:10.885Z,10.38
2022-09-25T19:58:00.697Z,8.95
2022-09-25T20:00:53.773Z,7.90
2022-09-25T20:03:47.935Z,9.60
2022-09-25T20:06:44.329Z,8.95
2022-09-25T20:09:40.178Z,7.85
2022-09-25T20:12:29.347Z,9.15
2022-09-25T20:15:19.757Z,10.82
2022-09-25T20:18:11.516Z,10.02
2022-09-25T20:21:06.680Z,10.48
2022-09-25T20:23:59.565Z,10.55
2022-09-25T20:26:52.022Z,11.77
2022-09-25T20:29:44.772Z,11.38
2022-09-25T20:32:35.326Z,10.57
2022-09-25T20:35:27.824Z,10.52
2022-09-25T20:38:18.508Z,11.60
2022-09-25T20:41:11.469Z,11.30
2022-09-25T20:44:07.881Z,11.25
2022-09-25T20:46:59.708Z,12.00
2022-09-25T20:49:49.505Z,11.20
2022-09-25T20:52:40.930Z,11.00
2022-09-25T20:55:39.065Z,10.85
2022-09-25T20:58:30.674Z,13.02
2022-09-25T21:01:24.420Z,13.32
2022-09-25T21:04:21.121Z,13.00
2022-09-25T21:07:16.940Z,12.38
2022-09-25T21:10:09.521Z,12.52
2022-09-25T21:13:07.100Z,14.40
2022-09-25T21:15:55.703Z,13.45
2022-09-25T21:18:45.788Z,12.73
2022-09-25T21:21:37.532Z,13.85
2022-09-25T21:24:28.433Z,12.98
2022-09-25T21:27:19.364Z,11.63
2022-09-25T21:30:14.766Z,11.25
2022-09-25T21:33:07.616Z,12.52
2022-09-25T21:35:57.306Z,12.77
2022-09-25T21:38:46.460Z,11.73
2022-09-25T21:41:38.068Z,12.02
2022-09-25T21:44:27.959Z,12.20
2022-09-25T21:47:20.985Z,11.43
2022-09-25T21:50:10.791Z,12.63
2022-09-25T21:52:59.996Z,13.25
2022-09-25T21:55:48.974Z,11.95
2022-09-25T21:58:38.750Z,12.43
2022-09-25T22:01:29.836Z,12.18
2022-09-25T22:04:21.053Z,12.15
2022-09-25T22:07:10.407Z,13.00
2022-09-25T22:09:59.878Z,11.90
2022-09-25T22:12:48.877Z,13.40
2022-09-25T22:15:38.118Z,14.98
2022-09-25T22:18:27.352Z,15.80
2022-09-25T22:21:20.267Z,13.93
2022-09-25T22:24:09.679Z,13.77
2022-09-25T22:26:59.064Z,14.07
2022-09-25T22:29:48.953Z,14.32
2022-09-25T22:32:40.297Z,14.38
2022-09-25T22:35:29.680Z,13.80
2022-09-25T22:38:20.028Z,15.07
2022-09-25T22:41:11.362Z,13.82
2022-09-25T22:44:01.168Z,15.48
2022-09-25T22:46:50.607Z,13.70
2022-09-25T22:49:39.773Z,13.40
2022-09-25T22:52:29.103Z,13.07
2022-09-25T22:55:19.527Z,13.75
2022-09-25T22:58:09.300Z,13.50
